sensor_id;sensor_type;location;lat;lon;timestamp;temperature;humidity
27667;DHT22;15074;50.940;5.282;2023-04-29T06:47:03;10.10;99.90
27667;DHT22;15074;50.940;5.282;2023-04-29T07:06:40;10.40;99.90
27667;DHT22;15074;50.940;5.282;2023-04-29T07:09:06;10.40;99.90
27667;DHT22;15074;50.940;5.282;2023-04-29T07:11:32;10.40;99.90
27667;DHT22;15074;50.940;5.282;2023-04-29T07:24:11;10.40;99.90
27667;DHT22;15074;50.940;5.282;2023-04-29T07:26:37;10.50;99.90
27667;DHT22;15074;50.940;5.282;2023-04-29T07:29:02;10.70;99.90
27667;DHT22;15074;50.940;5.282;2023-04-29T07:31:28;10.80;99.90
27667;DHT22;15074;50.940;5.282;2023-04-29T07:33:54;10.90;99.90
27667;DHT22;15074;50.940;5.282;2023-04-29T07:36:20;11.10;99.90
27667;DHT22;15074;50.940;5.282;2023-04-29T07:38:45;11.10;99.90
27667;DHT22;15074;50.940;5.282;2023-04-29T07:41:11;11.20;99.90
27667;DHT22;15074;50.940;5.282;2023-04-29T07:43:38;11.10;99.90
27667;DHT22;15074;50.940;5.282;2023-04-29T07:46:03;11.10;99.90
27667;DHT22;15074;50.940;5.282;2023-04-29T07:48:29;11.10;99.90
27667;DHT22;15074;50.940;5.282;2023-04-29T07:50:55;11.00;99.90
27667;DHT22;15074;50.940;5.282;2023-04-29T07:53:20;11.20;99.90
27667;DHT22;15074;50.940;5.282;2023-04-29T07:55:46;11.30;99.90
27667;DHT22;15074;50.940;5.282;2023-04-29T07:58:12;11.30;99.90
27667;DHT22;15074;50.940;5.282;2023-04-29T08:00:38;11.40;99.90
27667;DHT22;15074;50.940;5.282;2023-04-29T08:03:03;11.30;99.90
27667;DHT22;15074;50.940;5.282;2023-04-29T08:05:29;11.40;99.90
27667;DHT22;15074;50.940;5.282;2023-04-29T08:07:55;11.50;99.90
27667;DHT22;15074;50.940;5.282;2023-04-29T08:10:21;11.40;99.90
27667;DHT22;15074;50.940;5.282;2023-04-29T08:12:49;11.40;99.90
27667;DHT22;15074;50.940;5.282;2023-04-29T08:15:15;11.40;99.90
27667;DHT22;15074;50.940;5.282;2023-04-29T08:17:42;11.40;99.90
27667;DHT22;15074;50.940;5.282;2023-04-29T08:20:08;11.30;99.90
27667;DHT22;15074;50.940;5.282;2023-04-29T08:22:36;11.30;99.90
27667;DHT22;15074;50.940;5.282;2023-04-29T08:25:03;11.30;99.90
27667;DHT22;15074;50.940;5.282;2023-04-29T08:27:29;11.30;99.90
27667;DHT22;15074;50.940;5.282;2023-04-29T08:29:55;11.50;99.90
27667;DHT22;15074;50.940;5.282;2023-04-29T08:32:21;11.70;99.90
27667;DHT22;15074;50.940;5.282;2023-04-29T08:34:48;11.80;99.90
27667;DHT22;15074;50.940;5.282;2023-04-29T08:37:14;11.90;99.90
27667;DHT22;15074;50.940;5.282;2023-04-29T08:39:40;12.10;99.90
27667;DHT22;15074;50.940;5.282;2023-04-29T08:42:11;12.40;99.90
27667;DHT22;15074;50.940;5.282;2023-04-29T08:44:38;12.60;99.90
27667;DHT22;15074;50.940;5.282;2023-04-29T08:47:05;12.80;99.90
27667;DHT22;15074;50.940;5.282;2023-04-29T08:49:32;13.10;99.90
27667;DHT22;15074;50.940;5.282;2023-04-29T08:51:58;13.20;99.90
27667;DHT22;15074;50.940;5.282;2023-04-29T08:54:25;13.20;99.90
27667;DHT22;15074;50.940;5.282;2023-04-29T08:56:52;13.10;99.90
27667;DHT22;15074;50.940;5.282;2023-04-29T08:59:19;12.80;99.90
27667;DHT22;15074;50.940;5.282;2023-04-29T09:01:47;12.70;99.90
27667;DHT22;15074;50.940;5.282;2023-04-29T09:07:20;12.80;99.90
27667;DHT22;15074;50.940;5.282;2023-04-29T09:09:47;12.70;99.90
27667;DHT22;15074;50.940;5.282;2023-04-29T09:12:14;12.50;99.90
27667;DHT22;15074;50.940;5.282;2023-04-29T09:14:39;12.40;99.90
27667;DHT22;15074;50.940;5.282;2023-04-29T09:17:05;12.50;99.90
27667;DHT22;15074;50.940;5.282;2023-04-29T09:19:34;12.60;99.90
27667;DHT22;15074;50.940;5.282;2023-04-29T09:22:01;12.70;99.90
27667;DHT22;15074;50.940;5.282;2023-04-29T09:24:29;12.60;99.90
27667;DHT22;15074;50.940;5.282;2023-04-29T09:26:56;12.60;99.90
27667;DHT22;15074;50.940;5.282;2023-04-29T09:29:22;12.90;99.90
27667;DHT22;15074;50.940;5.282;2023-04-29T09:31:48;13.10;99.90
27667;DHT22;15074;50.940;5.282;2023-04-29T09:34:15;13.50;99.90
27667;DHT22;15074;50.940;5.282;2023-04-29T09:36:48;14.10;99.90
27667;DHT22;15074;50.940;5.282;2023-04-29T09:39:22;14.60;99.90
27667;DHT22;15074;50.940;5.282;2023-04-29T09:44:18;14.90;99.90
27667;DHT22;15074;50.940;5.282;2023-04-29T09:46:54;15.30;99.90
27667;DHT22;15074;50.940;5.282;2023-04-29T09:49:26;15.50;99.90
27667;DHT22;15074;50.940;5.282;2023-04-29T09:51:58;15.50;99.90
27667;DHT22;15074;50.940;5.282;2023-04-29T09:54:25;15.40;99.90
27667;DHT22;15074;50.940;5.282;2023-04-29T09:56:53;15.40;99.90
27667;DHT22;15074;50.940;5.282;2023-04-29T09:59:20;15.70;99.90
27667;DHT22;15074;50.940;5.282;2023-04-29T10:01:48;15.80;99.90
27667;DHT22;15074;50.940;5.282;2023-04-29T10:04:15;15.80;99.90
27667;DHT22;15074;50.940;5.282;2023-04-29T10:06:43;16.10;99.90
27667;DHT22;15074;50.940;5.282;2023-04-29T10:09:12;16.50;99.90
27667;DHT22;15074;50.940;5.282;2023-04-29T10:11:41;16.80;99.90
27667;DHT22;15074;50.940;5.282;2023-04-29T10:14:12;16.40;99.90
27667;DHT22;15074;50.940;5.282;2023-04-29T10:22:11;15.80;99.90
27667;DHT22;15074;50.940;5.282;2023-04-29T10:24:38;15.70;99.90
27667;DHT22;15074;50.940;5.282;2023-04-29T10:27:07;15.70;99.90
27667;DHT22;15074;50.940;5.282;2023-04-29T10:29:37;15.70;99.90
27667;DHT22;15074;50.940;5.282;2023-04-29T10:32:06;16.10;99.90
27667;DHT22;15074;50.940;5.282;2023-04-29T10:34:36;16.20;99.90
27667;DHT22;15074;50.940;5.282;2023-04-29T10:37:04;16.10;99.90
27667;DHT22;15074;50.940;5.282;2023-04-29T10:45:25;15.90;99.90
27667;DHT22;15074;50.940;5.282;2023-04-29T10:55:40;16.90;99.90
27667;DHT22;15074;50.940;5.282;2023-04-29T11:01:01;17.60;99.90
27667;DHT22;15074;50.940;5.282;2023-04-29T11:03:47;17.00;99.90
27667;DHT22;15074;50.940;5.282;2023-04-29T11:06:13;17.00;99.90
27667;DHT22;15074;50.940;5.282;2023-04-29T11:08:39;16.90;99.90
27667;DHT22;15074;50.940;5.282;2023-04-29T11:11:07;16.80;99.90
27667;DHT22;15074;50.940;5.282;2023-04-29T11:13:38;16.90;99.90
27667;DHT22;15074;50.940;5.282;2023-04-29T11:16:07;16.70;99.90
27667;DHT22;15074;50.940;5.282;2023-04-29T11:18:35;17.30;99.90
27667;DHT22;15074;50.940;5.282;2023-04-29T11:23:37;18.60;99.90
27667;DHT22;15074;50.940;5.282;2023-04-29T11:26:03;19.10;99.90
27667;DHT22;15074;50.940;5.282;2023-04-29T11:28:30;19.10;99.90
27667;DHT22;15074;50.940;5.282;2023-04-29T11:30:59;18.90;99.90
27667;DHT22;15074;50.940;5.282;2023-04-29T11:33:26;18.50;99.90
27667;DHT22;15074;50.940;5.282;2023-04-29T11:35:53;17.50;99.90
27667;DHT22;15074;50.940;5.282;2023-04-29T11:38:29;16.70;99.90
27667;DHT22;15074;50.940;5.282;2023-04-29T11:40:56;16.20;99.90
27667;DHT22;15074;50.940;5.282;2023-04-29T11:43:23;16.80;99.90
27667;DHT22;15074;50.940;5.282;2023-04-29T11:45:50;17.20;99.90
27667;DHT22;15074;50.940;5.282;2023-04-29T11:48:24;16.50;99.90
27667;DHT22;15074;50.940;5.282;2023-04-29T11:50:57;15.90;99.90
27667;DHT22;15074;50.940;5.282;2023-04-29T11:53:25;15.50;99.90
27667;DHT22;15074;50.940;5.282;2023-04-29T11:55:53;16.20;99.90
27667;DHT22;15074;50.940;5.282;2023-04-29T11:58:23;16.70;99.90
27667;DHT22;15074;50.940;5.282;2023-04-29T12:00:52;16.60;99.90
27667;DHT22;15074;50.940;5.282;2023-04-29T12:03:19;17.20;99.90
27667;DHT22;15074;50.940;5.282;2023-04-29T12:05:55;17.30;99.90
27667;DHT22;15074;50.940;5.282;2023-04-29T12:08:25;17.60;99.90
27667;DHT22;15074;50.940;5.282;2023-04-29T12:10:55;17.90;99.90
27667;DHT22;15074;50.940;5.282;2023-04-29T12:13:31;18.00;99.90
27667;DHT22;15074;50.940;5.282;2023-04-29T12:15:58;18.20;99.90
27667;DHT22;15074;50.940;5.282;2023-04-29T12:18:24;18.20;99.90
27667;DHT22;15074;50.940;5.282;2023-04-29T12:20:52;17.90;99.90
27667;DHT22;15074;50.940;5.282;2023-04-29T12:23:24;17.60;99.90
27667;DHT22;15074;50.940;5.282;2023-04-29T12:25:57;17.60;99.90
27667;DHT22;15074;50.940;5.282;2023-04-29T12:28:25;17.50;99.90
27667;DHT22;15074;50.940;5.282;2023-04-29T12:30:52;16.90;99.90
27667;DHT22;15074;50.940;5.282;2023-04-29T12:33:24;16.60;99.90
27667;DHT22;15074;50.940;5.282;2023-04-29T12:35:54;16.40;99.90
27667;DHT22;15074;50.940;5.282;2023-04-29T12:38:22;16.10;99.90
27667;DHT22;15074;50.940;5.282;2023-04-29T12:40:49;16.10;99.90
27667;DHT22;15074;50.940;5.282;2023-04-29T12:43:16;16.20;99.90
27667;DHT22;15074;50.940;5.282;2023-04-29T12:45:41;16.20;99.90
27667;DHT22;15074;50.940;5.282;2023-04-29T12:48:07;16.20;99.90
27667;DHT22;15074;50.940;5.282;2023-04-29T12:50:35;16.20;99.90
27667;DHT22;15074;50.940;5.282;2023-04-29T12:53:06;16.30;99.90
27667;DHT22;15074;50.940;5.282;2023-04-29T12:55:34;16.50;99.90
27667;DHT22;15074;50.940;5.282;2023-04-29T12:58:01;16.70;99.90
27667;DHT22;15074;50.940;5.282;2023-04-29T13:00:27;16.70;99.90
27667;DHT22;15074;50.940;5.282;2023-04-29T13:02:53;16.90;99.90
27667;DHT22;15074;50.940;5.282;2023-04-29T13:05:19;17.40;99.90
27667;DHT22;15074;50.940;5.282;2023-04-29T13:07:47;17.40;99.90
27667;DHT22;15074;50.940;5.282;2023-04-29T13:10:13;17.50;99.90
27667;DHT22;15074;50.940;5.282;2023-04-29T13:12:39;17.50;99.90
27667;DHT22;15074;50.940;5.282;2023-04-29T13:15:06;17.40;99.90
27667;DHT22;15074;50.940;5.282;2023-04-29T13:17:34;17.40;99.90
27667;DHT22;15074;50.940;5.282;2023-04-29T13:20:03;17.70;99.90
27667;DHT22;15074;50.940;5.282;2023-04-29T13:22:29;18.10;99.90
27667;DHT22;15074;50.940;5.282;2023-04-29T13:24:55;18.40;99.90
27667;DHT22;15074;50.940;5.282;2023-04-29T13:27:21;18.50;99.90
27667;DHT22;15074;50.940;5.282;2023-04-29T13:29:47;18.70;99.90
27667;DHT22;15074;50.940;5.282;2023-04-29T13:32:12;18.50;99.90
27667;DHT22;15074;50.940;5.282;2023-04-29T13:34:38;18.40;99.90
27667;DHT22;15074;50.940;5.282;2023-04-29T13:37:10;18.90;99.90
27667;DHT22;15074;50.940;5.282;2023-04-29T13:39:36;19.30;99.90
27667;DHT22;15074;50.940;5.282;2023-04-29T13:42:02;19.60;99.90
27667;DHT22;15074;50.940;5.282;2023-04-29T13:44:28;19.70;99.90
27667;DHT22;15074;50.940;5.282;2023-04-29T13:46:55;19.20;99.90
27667;DHT22;15074;50.940;5.282;2023-04-29T13:49:21;19.10;99.90
27667;DHT22;15074;50.940;5.282;2023-04-29T13:51:47;18.80;99.90
27667;DHT22;15074;50.940;5.282;2023-04-29T13:54:13;18.00;99.90
27667;DHT22;15074;50.940;5.282;2023-04-29T13:56:39;17.60;99.90
27667;DHT22;15074;50.940;5.282;2023-04-29T13:59:04;17.40;99.90
27667;DHT22;15074;50.940;5.282;2023-04-29T14:01:30;17.00;99.90
27667;DHT22;15074;50.940;5.282;2023-04-29T14:03:56;16.70;99.90
27667;DHT22;15074;50.940;5.282;2023-04-29T14:06:22;16.60;99.90
27667;DHT22;15074;50.940;5.282;2023-04-29T14:08:47;16.70;99.90
27667;DHT22;15074;50.940;5.282;2023-04-29T14:11:13;17.00;99.90
27667;DHT22;15074;50.940;5.282;2023-04-29T14:13:39;17.20;99.90
27667;DHT22;15074;50.940;5.282;2023-04-29T14:16:05;17.40;99.90
27667;DHT22;15074;50.940;5.282;2023-04-29T14:18:31;17.60;99.90
27667;DHT22;15074;50.940;5.282;2023-04-29T14:20:57;17.70;99.90
27667;DHT22;15074;50.940;5.282;2023-04-29T14:23:24;18.00;99.90
27667;DHT22;15074;50.940;5.282;2023-04-29T14:25:50;18.10;99.90
27667;DHT22;15074;50.940;5.282;2023-04-29T14:28:15;18.30;99.90
27667;DHT22;15074;50.940;5.282;2023-04-29T14:30:41;18.20;99.90
27667;DHT22;15074;50.940;5.282;2023-04-29T14:33:08;18.40;99.90
27667;DHT22;15074;50.940;5.282;2023-04-29T14:35:33;17.80;99.90
27667;DHT22;15074;50.940;5.282;2023-04-29T14:37:59;17.50;99.90
27667;DHT22;15074;50.940;5.282;2023-04-29T14:40:25;17.60;99.90
27667;DHT22;15074;50.940;5.282;2023-04-29T14:42:51;17.80;99.90
27667;DHT22;15074;50.940;5.282;2023-04-29T14:45:17;17.50;99.90
27667;DHT22;15074;50.940;5.282;2023-04-29T14:47:42;17.40;99.90
27667;DHT22;15074;50.940;5.282;2023-04-29T14:50:09;17.00;99.90
27667;DHT22;15074;50.940;5.282;2023-04-29T14:52:35;16.90;99.90
27667;DHT22;15074;50.940;5.282;2023-04-29T14:55:01;17.00;99.90
27667;DHT22;15074;50.940;5.282;2023-04-29T14:57:27;17.00;99.90
27667;DHT22;15074;50.940;5.282;2023-04-29T14:59:54;17.20;99.90
27667;DHT22;15074;50.940;5.282;2023-04-29T15:02:20;17.20;99.90
27667;DHT22;15074;50.940;5.282;2023-04-29T15:04:46;17.50;99.90
27667;DHT22;15074;50.940;5.282;2023-04-29T15:07:12;17.50;99.90
27667;DHT22;15074;50.940;5.282;2023-04-29T15:09:38;17.40;99.90
27667;DHT22;15074;50.940;5.282;2023-04-29T15:12:04;17.30;99.90
27667;DHT22;15074;50.940;5.282;2023-04-29T15:14:30;17.40;99.90
27667;DHT22;15074;50.940;5.282;2023-04-29T15:16:56;17.40;99.90
27667;DHT22;15074;50.940;5.282;2023-04-29T15:19:22;17.60;99.90
27667;DHT22;15074;50.940;5.282;2023-04-29T15:21:49;17.80;99.90
27667;DHT22;15074;50.940;5.282;2023-04-29T15:24:16;17.80;99.90
27667;DHT22;15074;50.940;5.282;2023-04-29T15:26:42;17.90;99.90
27667;DHT22;15074;50.940;5.282;2023-04-29T15:29:08;18.10;99.90
27667;DHT22;15074;50.940;5.282;2023-04-29T15:31:34;18.20;99.90
27667;DHT22;15074;50.940;5.282;2023-04-29T15:33:59;18.00;99.90
27667;DHT22;15074;50.940;5.282;2023-04-29T15:36:30;17.90;99.90
27667;DHT22;15074;50.940;5.282;2023-04-29T15:38:57;17.70;99.90
27667;DHT22;15074;50.940;5.282;2023-04-29T15:41:24;17.50;99.90
27667;DHT22;15074;50.940;5.282;2023-04-29T15:43:53;17.10;99.90
27667;DHT22;15074;50.940;5.282;2023-04-29T15:46:20;17.10;99.90
27667;DHT22;15074;50.940;5.282;2023-04-29T15:48:46;17.30;99.90
27667;DHT22;15074;50.940;5.282;2023-04-29T15:51:12;17.20;99.90
27667;DHT22;15074;50.940;5.282;2023-04-29T15:53:41;17.30;99.90
27667;DHT22;15074;50.940;5.282;2023-04-29T15:56:08;17.10;99.90
27667;DHT22;15074;50.940;5.282;2023-04-29T15:58:34;17.00;99.90
27667;DHT22;15074;50.940;5.282;2023-04-29T16:01:00;17.10;99.90
27667;DHT22;15074;50.940;5.282;2023-04-29T16:03:25;17.30;99.90
27667;DHT22;15074;50.940;5.282;2023-04-29T16:05:52;17.50;99.90
27667;DHT22;15074;50.940;5.282;2023-04-29T16:08:18;17.50;99.90
27667;DHT22;15074;50.940;5.282;2023-04-29T16:10:44;17.50;99.90
27667;DHT22;15074;50.940;5.282;2023-04-29T16:13:10;17.60;99.90
27667;DHT22;15074;50.940;5.282;2023-04-29T16:15:36;17.60;99.90
27667;DHT22;15074;50.940;5.282;2023-04-29T16:18:02;17.50;99.90
27667;DHT22;15074;50.940;5.282;2023-04-29T16:20:27;17.50;99.90
27667;DHT22;15074;50.940;5.282;2023-04-29T16:22:53;17.60;99.90
27667;DHT22;15074;50.940;5.282;2023-04-29T16:25:18;17.70;99.90
27667;DHT22;15074;50.940;5.282;2023-04-29T16:27:44;17.50;99.90
27667;DHT22;15074;50.940;5.282;2023-04-29T16:30:10;17.30;99.90
27667;DHT22;15074;50.940;5.282;2023-04-29T16:32:36;17.30;99.90
27667;DHT22;15074;50.940;5.282;2023-04-29T16:35:02;17.30;99.90
27667;DHT22;15074;50.940;5.282;2023-04-29T16:37:27;17.20;99.90
27667;DHT22;15074;50.940;5.282;2023-04-29T16:39:53;17.00;99.90
27667;DHT22;15074;50.940;5.282;2023-04-29T16:42:19;17.00;99.90
27667;DHT22;15074;50.940;5.282;2023-04-29T16:44:44;16.70;99.90
27667;DHT22;15074;50.940;5.282;2023-04-29T16:47:10;16.70;99.90
27667;DHT22;15074;50.940;5.282;2023-04-29T16:49:36;16.90;99.90
27667;DHT22;15074;50.940;5.282;2023-04-29T16:52:03;17.00;99.90
27667;DHT22;15074;50.940;5.282;2023-04-29T16:54:29;16.90;99.90
27667;DHT22;15074;50.940;5.282;2023-04-29T16:56:55;17.00;99.90
27667;DHT22;15074;50.940;5.282;2023-04-29T16:59:21;16.80;99.90
27667;DHT22;15074;50.940;5.282;2023-04-29T17:01:47;16.80;99.90
27667;DHT22;15074;50.940;5.282;2023-04-29T17:04:13;17.00;99.90
27667;DHT22;15074;50.940;5.282;2023-04-29T17:06:39;16.90;99.90
27667;DHT22;15074;50.940;5.282;2023-04-29T17:09:05;16.70;99.90
27667;DHT22;15074;50.940;5.282;2023-04-29T17:11:31;16.60;99.90
27667;DHT22;15074;50.940;5.282;2023-04-29T17:13:57;16.60;99.90
27667;DHT22;15074;50.940;5.282;2023-04-29T17:16:23;16.60;99.90
27667;DHT22;15074;50.940;5.282;2023-04-29T17:18:50;16.40;99.90
27667;DHT22;15074;50.940;5.282;2023-04-29T17:21:16;16.30;99.90
27667;DHT22;15074;50.940;5.282;2023-04-29T17:23:42;16.10;99.90
27667;DHT22;15074;50.940;5.282;2023-04-29T17:26:08;16.10;99.90
27667;DHT22;15074;50.940;5.282;2023-04-29T17:28:33;16.20;99.90
27667;DHT22;15074;50.940;5.282;2023-04-29T17:30:59;16.10;99.90
27667;DHT22;15074;50.940;5.282;2023-04-29T17:33:26;16.30;99.90
27667;DHT22;15074;50.940;5.282;2023-04-29T17:36:02;16.30;99.90
27667;DHT22;15074;50.940;5.282;2023-04-29T17:38:28;16.30;99.90
27667;DHT22;15074;50.940;5.282;2023-04-29T17:40:54;16.20;99.90
27667;DHT22;15074;50.940;5.282;2023-04-29T17:43:21;16.20;99.90
27667;DHT22;15074;50.940;5.282;2023-04-29T17:45:46;16.20;99.90
27667;DHT22;15074;50.940;5.282;2023-04-29T17:48:12;16.30;99.90
27667;DHT22;15074;50.940;5.282;2023-04-29T17:50:43;16.30;99.90
27667;DHT22;15074;50.940;5.282;2023-04-29T17:53:09;16.30;99.90
27667;DHT22;15074;50.940;5.282;2023-04-29T17:55:37;16.10;99.90
27667;DHT22;15074;50.940;5.282;2023-04-29T17:58:03;15.90;99.90
27667;DHT22;15074;50.940;5.282;2023-04-29T18:00:29;15.90;99.90
27667;DHT22;15074;50.940;5.282;2023-04-29T18:02:55;15.80;99.90
27667;DHT22;15074;50.940;5.282;2023-04-29T18:05:21;15.70;99.90
27667;DHT22;15074;50.940;5.282;2023-04-29T18:07:46;15.60;99.90
27667;DHT22;15074;50.940;5.282;2023-04-29T18:10:12;15.50;99.90
27667;DHT22;15074;50.940;5.282;2023-04-29T18:12:38;15.40;99.90
27667;DHT22;15074;50.940;5.282;2023-04-29T18:15:04;15.30;99.90
27667;DHT22;15074;50.940;5.282;2023-04-29T18:17:30;15.10;99.90
27667;DHT22;15074;50.940;5.282;2023-04-29T18:19:56;15.10;99.90
27667;DHT22;15074;50.940;5.282;2023-04-29T18:22:22;15.00;99.90
27667;DHT22;15074;50.940;5.282;2023-04-29T18:24:47;14.90;99.90
27667;DHT22;15074;50.940;5.282;2023-04-29T18:27:14;14.80;99.90
27667;DHT22;15074;50.940;5.282;2023-04-29T18:29:39;14.60;99.90
27667;DHT22;15074;50.940;5.282;2023-04-29T18:32:05;14.50;99.90
27667;DHT22;15074;50.940;5.282;2023-04-29T18:34:31;14.50;99.90
27667;DHT22;15074;50.940;5.282;2023-04-29T18:36:56;14.40;99.90
27667;DHT22;15074;50.940;5.282;2023-04-29T18:39:22;14.30;99.90
27667;DHT22;15074;50.940;5.282;2023-04-29T18:41:48;14.10;99.90
27667;DHT22;15074;50.940;5.282;2023-04-29T18:44:14;14.00;99.90
27667;DHT22;15074;50.940;5.282;2023-04-29T18:46:39;14.00;99.90
27667;DHT22;15074;50.940;5.282;2023-04-29T18:49:05;13.60;99.90
27667;DHT22;15074;50.940;5.282;2023-04-29T18:51:32;13.20;99.90
27667;DHT22;15074;50.940;5.282;2023-04-29T18:53:58;12.90;99.90
27667;DHT22;15074;50.940;5.282;2023-04-29T18:56:24;12.60;99.90
27667;DHT22;15074;50.940;5.282;2023-04-29T18:58:49;12.40;99.90
27667;DHT22;15074;50.940;5.282;2023-04-29T19:01:15;12.30;99.90
27667;DHT22;15074;50.940;5.282;2023-04-29T19:03:41;12.10;99.90
27667;DHT22;15074;50.940;5.282;2023-04-29T19:06:07;12.00;99.90
27667;DHT22;15074;50.940;5.282;2023-04-29T19:08:32;11.90;99.90
27667;DHT22;15074;50.940;5.282;2023-04-29T19:10:58;11.70;99.90
27667;DHT22;15074;50.940;5.282;2023-04-29T19:13:23;11.60;99.90
27667;DHT22;15074;50.940;5.282;2023-04-29T19:15:50;11.50;99.90
27667;DHT22;15074;50.940;5.282;2023-04-29T19:18:19;11.40;99.90
27667;DHT22;15074;50.940;5.282;2023-04-29T19:20:47;11.30;99.90
27667;DHT22;15074;50.940;5.282;2023-04-29T19:23:13;11.10;99.90
27667;DHT22;15074;50.940;5.282;2023-04-29T19:25:38;11.10;99.90
27667;DHT22;15074;50.940;5.282;2023-04-29T19:28:04;11.00;99.90
27667;DHT22;15074;50.940;5.282;2023-04-29T19:30:31;11.00;99.90
27667;DHT22;15074;50.940;5.282;2023-04-29T19:32:57;11.00;99.90
27667;DHT22;15074;50.940;5.282;2023-04-29T19:35:23;10.90;99.90
27667;DHT22;15074;50.940;5.282;2023-04-29T19:37:49;10.90;99.90
27667;DHT22;15074;50.940;5.282;2023-04-29T19:40:14;10.90;99.90
27667;DHT22;15074;50.940;5.282;2023-04-29T19:42:40;11.00;99.90
27667;DHT22;15074;50.940;5.282;2023-04-29T19:45:07;10.90;99.90
27667;DHT22;15074;50.940;5.282;2023-04-29T19:47:33;11.00;99.90
27667;DHT22;15074;50.940;5.282;2023-04-29T19:49:59;10.90;99.90
27667;DHT22;15074;50.940;5.282;2023-04-29T19:52:24;11.00;99.90
27667;DHT22;15074;50.940;5.282;2023-04-29T19:54:51;10.90;99.90
27667;DHT22;15074;50.940;5.282;2023-04-29T19:57:17;10.90;99.90
27667;DHT22;15074;50.940;5.282;2023-04-29T19:59:42;11.00;99.90
27667;DHT22;15074;50.940;5.282;2023-04-29T20:02:08;11.10;99.90
27667;DHT22;15074;50.940;5.282;2023-04-29T20:04:34;11.20;99.90
27667;DHT22;15074;50.940;5.282;2023-04-29T20:06:59;11.20;99.90
27667;DHT22;15074;50.940;5.282;2023-04-29T20:09:25;11.10;99.90
27667;DHT22;15074;50.940;5.282;2023-04-29T20:11:51;11.10;99.90
27667;DHT22;15074;50.940;5.282;2023-04-29T20:14:17;11.00;99.90
27667;DHT22;15074;50.940;5.282;2023-04-29T20:16:42;11.00;99.90
27667;DHT22;15074;50.940;5.282;2023-04-29T20:19:08;11.00;99.90
27667;DHT22;15074;50.940;5.282;2023-04-29T20:21:34;11.00;99.90
27667;DHT22;15074;50.940;5.282;2023-04-29T20:23:59;11.00;99.90
27667;DHT22;15074;50.940;5.282;2023-04-29T20:26:25;11.10;99.90
27667;DHT22;15074;50.940;5.282;2023-04-29T20:28:51;11.10;99.90
27667;DHT22;15074;50.940;5.282;2023-04-29T20:31:17;11.10;99.90
27667;DHT22;15074;50.940;5.282;2023-04-29T20:33:43;11.10;99.90
27667;DHT22;15074;50.940;5.282;2023-04-29T20:36:08;11.20;99.90
27667;DHT22;15074;50.940;5.282;2023-04-29T20:38:35;11.30;99.90
27667;DHT22;15074;50.940;5.282;2023-04-29T20:41:01;11.40;99.90
27667;DHT22;15074;50.940;5.282;2023-04-29T20:43:27;11.40;99.90
27667;DHT22;15074;50.940;5.282;2023-04-29T20:45:53;11.50;99.90
27667;DHT22;15074;50.940;5.282;2023-04-29T20:48:18;11.60;99.90
27667;DHT22;15074;50.940;5.282;2023-04-29T20:50:46;11.50;99.90
27667;DHT22;15074;50.940;5.282;2023-04-29T20:53:12;11.50;99.90
27667;DHT22;15074;50.940;5.282;2023-04-29T20:55:38;11.60;99.90
27667;DHT22;15074;50.940;5.282;2023-04-29T21:01:06;11.60;99.90
27667;DHT22;15074;50.940;5.282;2023-04-29T21:03:33;11.60;99.90
27667;DHT22;15074;50.940;5.282;2023-04-29T21:05:59;11.70;99.90
27667;DHT22;15074;50.940;5.282;2023-04-29T21:08:24;11.70;99.90
27667;DHT22;15074;50.940;5.282;2023-04-29T21:10:50;11.60;99.90
27667;DHT22;15074;50.940;5.282;2023-04-29T21:13:16;11.60;99.90
27667;DHT22;15074;50.940;5.282;2023-04-29T21:15:44;11.70;99.90
27667;DHT22;15074;50.940;5.282;2023-04-29T21:21:15;11.70;99.90
27667;DHT22;15074;50.940;5.282;2023-04-29T21:23:41;11.80;99.90
27667;DHT22;15074;50.940;5.282;2023-04-29T21:26:26;11.90;99.90
27667;DHT22;15074;50.940;5.282;2023-04-29T21:29:15;11.80;99.90
27667;DHT22;15074;50.940;5.282;2023-04-29T21:31:40;11.60;99.90
27667;DHT22;15074;50.940;5.282;2023-04-29T21:34:06;11.60;99.90
27667;DHT22;15074;50.940;5.282;2023-04-29T21:36:34;11.60;99.90
27667;DHT22;15074;50.940;5.282;2023-04-29T21:38:59;11.80;99.90
27667;DHT22;15074;50.940;5.282;2023-04-29T21:41:31;11.90;99.90
27667;DHT22;15074;50.940;5.282;2023-04-29T21:44:00;12.20;99.90
27667;DHT22;15074;50.940;5.282;2023-04-29T21:46:28;12.20;99.90
27667;DHT22;15074;50.940;5.282;2023-04-29T21:48:56;12.20;99.90
27667;DHT22;15074;50.940;5.282;2023-04-29T21:51:22;12.20;99.90
27667;DHT22;15074;50.940;5.282;2023-04-29T21:53:49;12.10;99.90
27667;DHT22;15074;50.940;5.282;2023-04-29T21:56:15;12.20;99.90
27667;DHT22;15074;50.940;5.282;2023-04-29T21:58:41;12.00;99.90
27667;DHT22;15074;50.940;5.282;2023-04-29T22:01:07;11.90;99.90
27667;DHT22;15074;50.940;5.282;2023-04-29T22:03:57;11.80;99.90
27667;DHT22;15074;50.940;5.282;2023-04-29T22:06:23;11.70;99.90
27667;DHT22;15074;50.940;5.282;2023-04-29T22:08:49;11.60;99.90
27667;DHT22;15074;50.940;5.282;2023-04-29T22:14:36;11.20;99.90
27667;DHT22;15074;50.940;5.282;2023-04-29T22:17:02;11.10;99.90
27667;DHT22;15074;50.940;5.282;2023-04-29T22:19:27;11.00;99.90
27667;DHT22;15074;50.940;5.282;2023-04-29T22:21:55;10.90;99.90
27667;DHT22;15074;50.940;5.282;2023-04-29T22:24:20;10.80;99.90
27667;DHT22;15074;50.940;5.282;2023-04-29T22:26:47;10.80;99.90
27667;DHT22;15074;50.940;5.282;2023-04-29T22:32:35;10.70;99.90
27667;DHT22;15074;50.940;5.282;2023-04-29T22:35:21;10.60;99.90
27667;DHT22;15074;50.940;5.282;2023-04-29T22:37:47;10.50;99.90
27667;DHT22;15074;50.940;5.282;2023-04-29T22:40:13;10.50;99.90
27667;DHT22;15074;50.940;5.282;2023-04-29T22:42:38;10.50;99.90
27667;DHT22;15074;50.940;5.282;2023-04-29T22:45:06;10.50;99.90
27667;DHT22;15074;50.940;5.282;2023-04-29T22:51:06;10.60;99.90
27667;DHT22;15074;50.940;5.282;2023-04-29T22:57:00;10.80;99.90
27667;DHT22;15074;50.940;5.282;2023-04-29T22:59:26;10.80;99.90
27667;DHT22;15074;50.940;5.282;2023-04-29T23:01:51;10.80;99.90
27667;DHT22;15074;50.940;5.282;2023-04-29T23:04:17;10.80;99.90
27667;DHT22;15074;50.940;5.282;2023-04-29T23:06:42;10.90;99.90
27667;DHT22;15074;50.940;5.282;2023-04-29T23:09:08;11.10;99.90
27667;DHT22;15074;50.940;5.282;2023-04-29T23:11:34;11.20;99.90
27667;DHT22;15074;50.940;5.282;2023-04-29T23:13:59;11.20;99.90
27667;DHT22;15074;50.940;5.282;2023-04-29T23:16:25;11.20;99.90
27667;DHT22;15074;50.940;5.282;2023-04-29T23:18:51;11.20;99.90
27667;DHT22;15074;50.940;5.282;2023-04-29T23:21:16;11.20;99.90
27667;DHT22;15074;50.940;5.282;2023-04-29T23:23:42;11.20;99.90
27667;DHT22;15074;50.940;5.282;2023-04-29T23:26:08;11.30;99.90
27667;DHT22;15074;50.940;5.282;2023-04-29T23:28:34;11.40;99.90
27667;DHT22;15074;50.940;5.282;2023-04-29T23:31:00;11.40;99.90